createdAt,value
2023-04-10T00:02:02.376Z,13.17
2023-04-10T00:04:52.575Z,12.17
2023-04-10T00:07:41.483Z,17.00
2023-04-10T00:10:31.723Z,12.53
2023-04-10T00:13:20.305Z,13.33
2023-04-10T00:16:09.028Z,13.90
2023-04-10T00:18:57.591Z,13.10
2023-04-10T00:21:47.483Z,12.90
2023-04-10T00:24:36.038Z,13.23
2023-04-10T00:27:24.585Z,16.03
2023-04-10T00:30:13.123Z,14.13
2023-04-10T00:33:01.697Z,16.27
2023-04-10T00:35:50.423Z,13.50
2023-04-10T00:38:40.362Z,14.97
2023-04-10T00:41:29.513Z,16.83
2023-04-10T00:44:18.084Z,12.33
2023-04-10T00:47:06.933Z,13.20
2023-04-10T00:49:55.605Z,14.10
2023-04-10T00:52:44.137Z,14.27
2023-04-10T00:55:34.041Z,15.33
2023-04-10T00:58:22.533Z,11.83
2023-04-10T01:01:11.343Z,15.10
2023-04-10T01:04:00.522Z,13.90
2023-04-10T01:06:54.666Z,12.90
2023-04-10T01:09:46.021Z,15.60
2023-04-10T01:12:49.453Z,12.83
2023-04-10T01:15:44.493Z,15.10
2023-04-10T01:18:36.129Z,13.93
2023-04-10T01:21:24.869Z,14.40
2023-04-10T01:24:23.065Z,15.90
2023-04-10T01:27:17.374Z,13.33
2023-04-10T01:30:10.304Z,15.00
2023-04-10T01:33:00.851Z,13.67
2023-04-10T01:35:51.673Z,14.10
2023-04-10T01:38:43.547Z,14.27
2023-04-10T01:41:32.792Z,11.97
2023-04-10T01:44:23.172Z,12.90
2023-04-10T01:47:15.599Z,13.93
2023-04-10T01:50:05.166Z,15.10
2023-04-10T01:52:53.860Z,15.30
2023-04-10T01:55:42.581Z,14.90
2023-04-10T01:58:31.482Z,15.60
2023-04-10T02:01:29.065Z,14.00
2023-04-10T02:04:19.892Z,12.90
2023-04-10T02:07:11.252Z,14.17
2023-04-10T02:10:03.543Z,16.00
2023-04-10T02:12:55.722Z,12.87
2023-04-10T02:15:47.725Z,13.40
2023-04-10T02:18:36.844Z,15.20
2023-04-10T02:21:27.467Z,14.10
2023-04-10T02:24:16.138Z,13.13
2023-04-10T02:27:04.858Z,15.07
2023-04-10T02:29:53.444Z,14.97
2023-04-10T02:32:42.021Z,15.10
2023-04-10T02:35:30.632Z,13.67
2023-04-10T02:38:20.594Z,15.33
2023-04-10T02:41:09.158Z,17.10
2023-04-10T02:43:57.696Z,14.97
2023-04-10T02:46:47.070Z,15.87
2023-04-10T02:49:36.160Z,15.00
2023-04-10T02:52:24.707Z,17.37
2023-04-10T02:55:14.606Z,15.70
2023-04-10T02:58:03.094Z,16.23
2023-04-10T03:00:51.876Z,13.43
2023-04-10T03:03:40.758Z,13.60
2023-04-10T03:06:29.472Z,13.53
2023-04-10T03:09:17.998Z,17.53
2023-04-10T03:12:07.871Z,14.20
2023-04-10T03:14:56.388Z,16.40
2023-04-10T03:17:45.042Z,13.80
2023-04-10T03:20:34.034Z,16.07
2023-04-10T03:23:22.575Z,15.50
2023-04-10T03:26:11.228Z,14.90
2023-04-10T03:29:01.639Z,16.10
2023-04-10T03:31:50.266Z,14.27
2023-04-10T03:34:38.760Z,15.57
2023-04-10T03:37:28.385Z,15.73
2023-04-10T03:40:16.975Z,16.43
2023-04-10T03:43:05.695Z,16.27
2023-04-10T03:45:55.631Z,17.70
2023-04-10T03:48:44.110Z,15.43
2023-04-10T03:51:32.712Z,15.00
2023-04-10T03:54:21.264Z,14.90
2023-04-10T03:57:09.796Z,16.70
2023-04-10T03:59:58.307Z,15.40
2023-04-10T04:02:50.609Z,18.83
2023-04-10T04:05:39.570Z,15.60
2023-04-10T04:08:28.119Z,15.23
2023-04-10T04:11:16.584Z,16.70
2023-04-10T04:14:05.073Z,18.77
2023-04-10T04:16:53.684Z,13.97
2023-04-10T04:19:43.636Z,13.87
2023-04-10T04:22:32.430Z,15.33
2023-04-10T04:25:21.039Z,16.20
2023-04-10T04:28:09.807Z,14.33
2023-04-10T04:30:58.694Z,17.33
2023-04-10T04:33:47.190Z,15.10
2023-04-10T04:36:37.127Z,13.60
2023-04-10T04:39:25.892Z,14.63
2023-04-10T04:42:14.504Z,15.53
2023-04-10T04:45:03.102Z,17.63
2023-04-10T04:47:51.805Z,15.03
2023-04-10T04:50:41.411Z,17.97
2023-04-10T04:53:31.207Z,16.77
2023-04-10T04:56:19.729Z,17.43
2023-04-10T04:59:08.258Z,16.20
2023-04-10T05:01:56.964Z,16.30
2023-04-10T05:04:45.697Z,20.03
2023-04-10T05:07:34.236Z,17.03
2023-04-10T05:10:24.223Z,20.90
2023-04-10T05:13:12.777Z,15.97
2023-04-10T05:16:01.381Z,18.53
2023-04-10T05:18:50.078Z,20.20
2023-04-10T05:21:38.635Z,15.10
2023-04-10T05:24:27.172Z,17.57
2023-04-10T05:27:18.873Z,15.80
2023-04-10T05:30:08.557Z,17.13
2023-04-10T05:32:57.150Z,15.87
2023-04-10T05:35:47.294Z,17.40
2023-04-10T05:38:35.860Z,17.80
2023-04-10T05:41:24.453Z,15.57
2023-04-10T05:44:14.338Z,17.00
2023-04-10T05:47:02.886Z,15.40
2023-04-10T05:49:51.432Z,15.53
2023-04-10T05:52:39.952Z,19.60
2023-04-10T05:55:28.542Z,15.07
2023-04-10T05:58:17.083Z,14.53
2023-04-10T06:01:07.669Z,13.97
2023-04-10T06:03:56.354Z,17.13
2023-04-10T06:06:44.957Z,14.30
2023-04-10T06:09:33.437Z,13.20
2023-04-10T06:12:21.931Z,17.63
2023-04-10T06:15:11.089Z,11.83
2023-04-10T06:18:00.992Z,11.53
2023-04-10T06:20:49.555Z,13.13
2023-04-10T06:23:38.066Z,11.07
2023-04-10T06:26:26.601Z,12.00
2023-04-10T06:29:15.131Z,10.43
2023-04-10T06:32:04.020Z,12.03
2023-04-10T06:34:53.985Z,11.60
2023-04-10T06:37:43.363Z,10.67
2023-04-10T06:40:34.009Z,12.50
2023-04-10T06:43:22.544Z,9.93
2023-04-10T06:46:11.406Z,10.30
2023-04-10T06:49:00.008Z,9.40
2023-04-10T06:51:49.883Z,14.03
2023-04-10T06:54:38.433Z,9.33
2023-04-10T06:57:27.102Z,10.10
2023-04-10T07:00:16.366Z,9.10
2023-04-10T07:03:05.073Z,9.07
2023-04-10T07:05:53.677Z,9.20
2023-04-10T07:08:43.540Z,9.67
2023-04-10T07:11:32.040Z,8.33
2023-04-10T07:14:20.602Z,9.03
2023-04-10T07:17:09.685Z,7.87
2023-04-10T07:19:58.382Z,8.07
2023-04-10T07:22:46.894Z,8.50
2023-04-10T07:25:37.014Z,7.53
2023-04-10T07:28:25.704Z,8.73
2023-04-10T07:31:14.802Z,8.23
2023-04-10T07:34:04.493Z,7.43
2023-04-10T07:36:53.231Z,7.50
2023-04-10T07:39:41.811Z,7.33
2023-04-10T07:42:31.725Z,6.30
2023-04-10T07:45:20.587Z,7.07
2023-04-10T07:48:09.120Z,7.20
2023-04-10T07:50:58.839Z,7.10
2023-04-10T07:53:47.454Z,6.50
2023-04-10T07:56:36.309Z,6.50
2023-04-10T07:59:26.640Z,6.10
2023-04-10T08:02:15.525Z,6.27
2023-04-10T08:05:04.312Z,6.97
2023-04-10T08:07:52.903Z,5.67
2023-04-10T08:10:41.422Z,6.53
2023-04-10T08:13:30.108Z,6.23
2023-04-10T08:17:05.926Z,5.50
2023-04-10T08:19:54.492Z,5.57
2023-04-10T08:22:43.003Z,5.43
2023-04-10T08:25:32.152Z,5.07
2023-04-10T08:28:21.343Z,5.27
2023-04-10T08:31:09.918Z,4.70
2023-04-10T08:34:00.213Z,3.87
2023-04-10T08:36:49.063Z,4.10
2023-04-10T08:39:37.646Z,3.53
2023-04-10T08:42:26.305Z,3.63
2023-04-10T08:45:14.829Z,4.50
2023-04-10T08:48:04.079Z,4.30
2023-04-10T08:50:54.125Z,4.00
2023-04-10T08:53:45.064Z,4.23
2023-04-10T08:56:35.094Z,4.47
2023-04-10T08:59:23.924Z,4.57
2023-04-10T09:02:12.651Z,3.97
2023-04-10T09:05:01.580Z,3.40
2023-04-10T09:07:52.165Z,3.50
2023-04-10T09:10:40.777Z,3.93
2023-04-10T09:13:39.733Z,3.73
2023-04-10T09:16:30.299Z,4.17
2023-04-10T09:19:30.489Z,4.03
2023-04-10T09:22:19.958Z,4.40
2023-04-10T09:25:30.710Z,3.70
2023-04-10T09:28:19.213Z,3.80
2023-04-10T09:31:28.767Z,4.00
2023-04-10T09:34:18.729Z,4.40
2023-04-10T09:37:07.290Z,3.90
2023-04-10T09:39:56.167Z,4.27
2023-04-10T09:42:46.185Z,3.60
2023-04-10T09:45:48.212Z,3.47
2023-04-10T09:48:37.026Z,4.17
2023-04-10T09:51:29.736Z,3.40
2023-04-10T09:54:18.340Z,3.93
2023-04-10T09:57:08.287Z,3.30
2023-04-10T09:59:59.364Z,3.40
2023-04-10T10:02:49.220Z,3.00
2023-04-10T10:05:39.490Z,3.87
2023-04-10T10:08:28.104Z,3.20
2023-04-10T10:11:19.406Z,3.50
2023-04-10T10:14:13.283Z,3.00
2023-04-10T10:17:07.436Z,3.53
2023-04-10T10:20:02.818Z,4.03
2023-04-10T10:22:51.850Z,2.80
2023-04-10T10:25:40.882Z,3.47
2023-04-10T10:28:29.625Z,3.00
2023-04-10T10:31:18.840Z,3.07
2023-04-10T10:34:09.274Z,3.63
2023-04-10T10:36:59.438Z,2.73
2023-04-10T10:39:54.306Z,2.87
2023-04-10T10:42:48.062Z,2.80
2023-04-10T10:45:41.350Z,2.80
2023-04-10T10:48:30.043Z,2.80
2023-04-10T10:51:20.038Z,3.00
2023-04-10T10:54:28.679Z,2.67
2023-04-10T10:57:46.954Z,3.30
2023-04-10T11:01:10.784Z,2.93
2023-04-10T11:04:00.901Z,3.50
2023-04-10T11:06:52.917Z,2.57
2023-04-10T11:09:49.395Z,2.70
2023-04-10T11:13:16.318Z,2.87
2023-04-10T11:16:06.758Z,2.60
2023-04-10T11:19:14.909Z,2.17
2023-04-10T11:22:08.039Z,2.10
2023-04-10T11:24:58.955Z,2.40
2023-04-10T11:27:52.848Z,2.37
2023-04-10T11:30:41.439Z,2.73
2023-04-10T11:33:29.934Z,2.30
2023-04-10T11:36:18.729Z,1.97
2023-04-10T11:39:09.703Z,2.00
2023-04-10T11:41:58.730Z,2.00
2023-04-10T11:44:48.861Z,2.03
2023-04-10T11:47:37.634Z,2.00
2023-04-10T11:50:32.428Z,1.73
2023-04-10T11:53:21.547Z,2.00
2023-04-10T11:56:19.253Z,2.00
2023-04-10T11:59:10.540Z,1.80
2023-04-10T12:02:07.588Z,1.67
2023-04-10T12:04:59.242Z,1.97
2023-04-10T12:07:47.948Z,1.97
2023-04-10T12:10:46.949Z,1.80
2023-04-10T12:13:37.413Z,1.50
2023-04-10T12:16:27.329Z,1.70
2023-04-10T12:19:17.230Z,1.77
2023-04-10T12:22:06.720Z,2.53
2023-04-10T12:24:55.299Z,2.23
2023-04-10T12:27:49.745Z,1.67
2023-04-10T12:30:39.705Z,1.50
2023-04-10T12:33:28.229Z,2.60
2023-04-10T12:36:22.999Z,2.70
2023-04-10T12:39:23.461Z,2.73
2023-04-10T12:42:13.158Z,3.03
2023-04-10T12:45:02.261Z,2.90
2023-04-10T12:47:53.553Z,2.97
2023-04-10T12:50:48.578Z,3.23
2023-04-10T12:53:44.883Z,2.70
2023-04-10T12:56:42.639Z,2.70
2023-04-10T12:59:32.062Z,3.17
2023-04-10T13:02:21.309Z,2.90
2023-04-10T13:05:11.656Z,3.57
2023-04-10T13:08:00.267Z,3.70
2023-04-10T13:10:49.113Z,3.03
2023-04-10T13:13:37.684Z,2.80
2023-04-10T13:16:26.330Z,2.70
2023-04-10T13:19:14.906Z,2.77
2023-04-10T13:22:04.965Z,2.73
2023-04-10T13:24:53.479Z,3.10
2023-04-10T13:27:41.979Z,2.70
2023-04-10T13:30:31.195Z,2.90
2023-04-10T13:33:19.699Z,3.33
2023-04-10T13:36:08.882Z,3.27
2023-04-10T13:38:58.759Z,3.10
2023-04-10T13:41:47.286Z,3.30
2023-04-10T13:44:35.870Z,2.90
2023-04-10T13:47:24.337Z,2.63
2023-04-10T13:50:13.024Z,2.63
2023-04-10T13:53:01.601Z,3.03
2023-04-10T13:55:51.431Z,3.60
2023-04-10T13:58:39.984Z,2.90
2023-04-10T14:01:28.591Z,3.07
2023-04-10T14:04:17.186Z,2.97
2023-04-10T14:07:05.994Z,3.20
2023-04-10T14:09:54.611Z,3.80
2023-04-10T14:12:44.428Z,3.33
2023-04-10T14:15:32.948Z,2.90
2023-04-10T14:18:21.424Z,3.23
2023-04-10T14:21:09.967Z,2.60
2023-04-10T14:23:59.688Z,2.93
2023-04-10T14:26:48.185Z,3.13
2023-04-10T14:29:44.646Z,2.77
2023-04-10T14:32:39.814Z,2.97
2023-04-10T14:35:28.464Z,2.90
2023-04-10T14:38:16.978Z,2.77
2023-04-10T14:41:05.758Z,3.07
2023-04-10T14:43:54.506Z,3.10
2023-04-10T14:46:44.537Z,2.97
2023-04-10T14:49:33.147Z,3.30
2023-04-10T14:52:21.721Z,3.20
2023-04-10T14:55:11.172Z,3.37
2023-04-10T14:57:59.660Z,3.40
2023-04-10T15:00:48.226Z,3.13
2023-04-10T15:03:38.447Z,3.03
2023-04-10T15:06:28.193Z,2.70
2023-04-10T15:09:16.754Z,3.00
2023-04-10T15:12:05.602Z,2.97
2023-04-10T15:14:54.258Z,3.00
2023-04-10T15:17:42.805Z,3.13
2023-04-10T15:20:32.650Z,3.00
2023-04-10T15:23:21.319Z,3.00
2023-04-10T15:26:12.919Z,3.03
2023-04-10T15:29:01.481Z,2.73
2023-04-10T15:31:51.133Z,3.20
2023-04-10T15:34:39.865Z,3.27
2023-04-10T15:37:29.769Z,2.93
2023-04-10T15:40:18.493Z,3.20
2023-04-10T15:43:07.017Z,3.03
2023-04-10T15:45:56.175Z,2.60
2023-04-10T15:48:45.951Z,3.23
2023-04-10T15:51:34.682Z,3.40
2023-04-10T15:54:24.556Z,3.93
2023-04-10T15:57:13.024Z,3.30
2023-04-10T16:00:02.264Z,3.53
2023-04-10T16:02:51.266Z,3.23
2023-04-10T16:05:40.043Z,3.90
2023-04-10T16:08:28.940Z,3.20
2023-04-10T16:11:18.920Z,3.03
2023-04-10T16:14:07.426Z,3.30
2023-04-10T16:16:55.937Z,3.63
2023-04-10T16:19:44.417Z,3.30
2023-04-10T16:22:32.933Z,3.60
2023-04-10T16:25:22.258Z,3.80
2023-04-10T16:28:12.160Z,3.60
2023-04-10T16:31:00.756Z,3.60
2023-04-10T16:33:49.351Z,3.67
2023-04-10T16:36:38.168Z,3.30
2023-04-10T16:39:26.705Z,4.57
2023-04-10T16:42:15.224Z,3.60
2023-04-10T16:45:05.880Z,3.60
2023-04-10T16:47:54.458Z,4.33
2023-04-10T16:50:43.016Z,3.60
2023-04-10T16:53:31.513Z,3.60
2023-04-10T16:56:20.144Z,4.20
2023-04-10T16:59:08.798Z,4.10
2023-04-10T17:01:58.762Z,3.70
2023-04-10T17:04:47.276Z,4.03
2023-04-10T17:07:36.100Z,4.07
2023-04-10T17:10:24.885Z,4.40
2023-04-10T17:13:13.370Z,4.07
2023-04-10T17:16:01.914Z,4.00
2023-04-10T17:18:51.864Z,5.60
2023-04-10T17:21:40.378Z,3.83
2023-04-10T17:24:31.424Z,3.90
2023-04-10T17:27:20.391Z,4.00
2023-04-10T17:30:12.623Z,3.70
2023-04-10T17:33:01.519Z,3.90
2023-04-10T17:35:52.327Z,4.70
2023-04-10T17:38:41.536Z,3.70
2023-04-10T17:41:30.020Z,3.03
2023-04-10T17:44:19.578Z,4.43
2023-04-10T17:47:08.257Z,4.10
2023-04-10T17:49:57.066Z,4.50
2023-04-10T17:52:46.997Z,3.70
2023-04-10T17:55:41.029Z,4.30
2023-04-10T17:58:29.622Z,5.17
2023-04-10T18:01:26.070Z,15.73
2023-04-10T18:04:15.226Z,12.60
2023-04-10T18:07:03.808Z,9.90
2023-04-10T18:09:53.740Z,6.50
2023-04-10T18:12:43.303Z,5.23
2023-04-10T18:15:31.858Z,5.07
2023-04-10T18:18:20.422Z,5.00
2023-04-10T18:21:09.638Z,4.87
2023-04-10T18:23:58.268Z,4.07
2023-04-10T18:26:49.141Z,3.83
2023-04-10T18:29:42.080Z,4.17
2023-04-10T18:32:30.707Z,5.40
2023-04-10T18:35:19.617Z,4.17
2023-04-10T18:38:08.151Z,5.77
2023-04-10T18:40:57.771Z,6.17
2023-04-10T18:43:54.257Z,5.87
2023-04-10T18:47:01.264Z,6.60
2023-04-10T18:49:52.415Z,6.90
2023-04-10T18:52:41.012Z,8.00
2023-04-10T18:55:29.537Z,8.03
2023-04-10T18:58:18.094Z,7.53
2023-04-10T19:01:08.351Z,6.53
2023-04-10T19:03:57.567Z,5.17
2023-04-10T19:06:46.845Z,6.20
2023-04-10T19:09:35.583Z,12.83
2023-04-10T19:12:28.185Z,6.77
2023-04-10T19:15:19.451Z,5.70
2023-04-10T19:18:09.618Z,4.97
2023-04-10T19:20:59.181Z,4.60
2023-04-10T19:23:47.990Z,4.47
2023-04-10T19:26:37.522Z,5.17
2023-04-10T19:29:26.042Z,4.40
2023-04-10T19:32:14.716Z,6.00
2023-04-10T19:35:05.261Z,6.13
2023-04-10T19:37:57.346Z,4.60
2023-04-10T19:40:45.879Z,5.00
2023-04-10T19:43:34.416Z,4.23
2023-04-10T19:46:23.457Z,4.80
2023-04-10T19:49:12.130Z,4.07
2023-04-10T19:52:02.332Z,4.17
2023-04-10T19:54:50.848Z,4.10
2023-04-10T19:57:39.287Z,4.17
2023-04-10T20:00:27.779Z,4.13
2023-04-10T20:03:16.926Z,4.00
2023-04-10T20:06:07.331Z,4.00
2023-04-10T20:08:59.903Z,4.43
2023-04-10T20:11:51.418Z,5.50
2023-04-10T20:14:39.918Z,4.27
2023-04-10T20:17:28.961Z,3.80
2023-04-10T20:20:17.844Z,3.53
2023-04-10T20:23:06.405Z,3.67
2023-04-10T20:25:56.352Z,3.57
2023-04-10T20:28:44.810Z,4.47
2023-04-10T20:31:34.746Z,4.13
2023-04-10T20:34:23.472Z,5.43
2023-04-10T20:37:13.621Z,3.50
2023-04-10T20:40:02.199Z,4.03
2023-04-10T20:42:52.761Z,5.37
2023-04-10T20:45:41.600Z,3.83
2023-04-10T20:48:30.387Z,4.77
2023-04-10T20:51:19.114Z,3.47
2023-04-10T20:54:07.906Z,3.13
2023-04-10T20:56:59.852Z,3.80
2023-04-10T20:59:49.769Z,2.47
2023-04-10T21:02:38.598Z,3.23
2023-04-10T21:05:27.242Z,4.33
2023-04-10T21:08:15.787Z,3.07
2023-04-10T21:11:04.323Z,3.20
2023-04-10T21:13:52.776Z,2.40
2023-04-10T21:16:42.883Z,2.83
2023-04-10T21:19:31.505Z,4.33
2023-04-10T21:22:19.973Z,2.10
2023-04-10T21:25:09.395Z,2.60
2023-04-10T21:27:57.917Z,2.87
2023-04-10T21:30:46.506Z,3.00
2023-04-10T21:33:36.428Z,3.03
2023-04-10T21:36:24.915Z,4.00
2023-04-10T21:39:13.517Z,4.17
2023-04-10T21:42:02.078Z,3.23
2023-04-10T21:44:50.589Z,2.53
2023-04-10T21:47:39.123Z,3.03
2023-04-10T21:50:28.956Z,2.93
2023-04-10T21:53:17.494Z,3.10
2023-04-10T21:56:06.686Z,2.60
2023-04-10T21:58:55.336Z,2.60
2023-04-10T22:01:44.169Z,4.30
2023-04-10T22:04:33.230Z,2.50
2023-04-10T22:07:24.439Z,4.33
2023-04-10T22:10:12.949Z,2.80
2023-04-10T22:13:01.459Z,4.70
2023-04-10T22:15:49.950Z,3.03
2023-04-10T22:18:38.553Z,2.83
2023-04-10T22:21:27.463Z,2.47
2023-04-10T22:24:17.503Z,3.33
2023-04-10T22:27:06.120Z,3.83
2023-04-10T22:30:03.249Z,2.47
2023-04-10T22:32:57.197Z,2.40
2023-04-10T22:35:46.730Z,5.37
2023-04-10T22:38:35.364Z,2.70
2023-04-10T22:41:25.282Z,2.80
2023-04-10T22:44:13.899Z,7.20
2023-04-10T22:47:02.388Z,3.30
2023-04-10T22:49:50.909Z,2.40
2023-04-10T22:52:39.627Z,3.03
2023-04-10T22:55:28.418Z,10.20
2023-04-10T22:58:18.376Z,3.83
2023-04-10T23:01:08.201Z,3.20
2023-04-10T23:03:56.953Z,3.60
2023-04-10T23:06:45.530Z,2.27
2023-04-10T23:09:34.031Z,3.00
2023-04-10T23:12:22.573Z,7.20
2023-04-10T23:15:12.782Z,2.47
2023-04-10T23:18:01.381Z,3.40
2023-04-10T23:20:50.973Z,2.57
2023-04-10T23:23:39.529Z,2.97
2023-04-10T23:26:28.299Z,2.50
2023-04-10T23:29:17.001Z,2.43
2023-04-10T23:32:07.833Z,3.43
2023-04-10T23:34:56.382Z,3.20
2023-04-10T23:37:44.907Z,3.00
2023-04-10T23:40:33.513Z,2.87
2023-04-10T23:43:22.062Z,2.67
2023-04-10T23:46:10.565Z,2.63
2023-04-10T23:49:00.486Z,2.60
2023-04-10T23:51:49.283Z,4.40
2023-04-10T23:54:37.763Z,9.00
2023-04-10T23:57:26.233Z,2.87
